createdAt,value
2018-01-22T00:00:36.063Z,15.25
2018-01-22T00:03:03.578Z,17.02
2018-01-22T00:05:31.070Z,16.62
2018-01-22T00:07:58.636Z,17.15
2018-01-22T00:10:26.116Z,14.65
2018-01-22T00:12:53.650Z,15.05
2018-01-22T00:15:21.145Z,16.95
2018-01-22T00:17:49.560Z,14.87
2018-01-22T00:20:17.047Z,15.60
2018-01-22T00:22:44.722Z,14.82
2018-01-22T00:25:12.218Z,14.55
2018-01-22T00:27:39.744Z,15.32
2018-01-22T00:30:07.251Z,15.27
2018-01-22T00:32:34.911Z,12.43
2018-01-22T00:35:02.414Z,17.05
2018-01-22T00:37:29.937Z,16.23
2018-01-22T00:39:57.443Z,16.52
2018-01-22T00:42:24.950Z,14.93
2018-01-22T00:44:52.669Z,13.50
2018-01-22T00:47:20.166Z,13.95
2018-01-22T00:49:47.688Z,15.35
2018-01-22T00:52:15.177Z,15.00
2018-01-22T00:54:42.712Z,14.50
2018-01-22T00:57:10.976Z,13.40
2018-01-22T00:59:39.228Z,13.35
2018-01-22T01:02:06.793Z,15.00
2018-01-22T01:04:34.268Z,14.82
2018-01-22T01:07:01.865Z,15.95
2018-01-22T01:09:29.429Z,16.52
2018-01-22T01:11:57.060Z,15.00
2018-01-22T01:14:24.561Z,13.68
2018-01-22T01:16:52.118Z,16.95
2018-01-22T01:19:19.607Z,14.43
2018-01-22T01:21:47.110Z,13.75
2018-01-22T01:24:15.466Z,14.32
2018-01-22T01:26:43.717Z,11.55
2018-01-22T01:29:11.396Z,15.63
2018-01-22T01:31:39.652Z,13.32
2018-01-22T01:34:07.159Z,12.07
2018-01-22T01:36:34.642Z,13.80
2018-01-22T01:39:02.187Z,12.88
2018-01-22T01:41:29.675Z,12.98
2018-01-22T01:43:57.301Z,12.65
2018-01-22T01:46:24.933Z,15.40
2018-01-22T01:49:04.296Z,13.65
2018-01-22T01:51:31.772Z,13.30
2018-01-22T01:53:59.528Z,13.02
2018-01-22T01:56:27.116Z,13.13
2018-01-22T01:58:54.720Z,12.57
2018-01-22T02:01:22.382Z,12.50
2018-01-22T02:03:50.062Z,13.25
2018-01-22T02:06:17.579Z,11.85
2018-01-22T02:08:45.070Z,13.18
2018-01-22T02:11:12.627Z,13.20
2018-01-22T02:13:40.121Z,11.05
2018-01-22T02:16:07.622Z,13.50
2018-01-22T02:18:35.882Z,13.90
2018-01-22T02:21:03.393Z,14.23
2018-01-22T02:23:30.887Z,15.55
2018-01-22T02:25:58.386Z,11.60
2018-01-22T02:28:25.883Z,15.48
2018-01-22T02:30:53.400Z,15.25
2018-01-22T02:33:20.906Z,17.05
2018-01-22T02:35:48.506Z,18.42
2018-01-22T02:38:16.793Z,15.80
2018-01-22T02:40:44.361Z,17.23
2018-01-22T02:43:11.861Z,17.85
2018-01-22T02:45:39.755Z,19.20
2018-01-22T02:48:07.283Z,21.65
2018-01-22T02:50:34.789Z,20.52
2018-01-22T02:53:02.301Z,22.67
2018-01-22T02:55:29.911Z,20.30
2018-01-22T02:57:58.189Z,18.15
2018-01-22T03:00:25.692Z,19.98
2018-01-22T03:02:53.181Z,21.80
2018-01-22T03:05:20.693Z,21.95
2018-01-22T03:07:48.315Z,22.00
2018-01-22T03:10:15.829Z,22.27
2018-01-22T03:12:43.353Z,22.55
2018-01-22T03:15:10.871Z,25.25
2018-01-22T03:17:38.471Z,22.17
2018-01-22T03:20:06.003Z,26.35
2018-01-22T03:22:33.520Z,26.52
2018-01-22T03:25:01.093Z,22.73
2018-01-22T03:27:28.586Z,24.42
2018-01-22T03:29:56.873Z,25.35
2018-01-22T03:32:24.395Z,24.80
2018-01-22T03:34:52.155Z,27.75
2018-01-22T03:37:19.637Z,28.50
2018-01-22T03:39:47.928Z,28.10
2018-01-22T03:42:15.506Z,28.35
2018-01-22T03:44:43.165Z,28.38
2018-01-22T03:47:10.678Z,28.77
2018-01-22T03:49:38.255Z,26.37
2018-01-22T03:52:05.774Z,28.77
2018-01-22T03:54:33.279Z,27.17
2018-01-22T03:57:01.058Z,28.23
2018-01-22T03:59:28.532Z,27.75
2018-01-22T04:01:56.174Z,28.95
2018-01-22T04:04:23.658Z,25.37
2018-01-22T04:06:51.167Z,30.17
2018-01-22T04:09:18.659Z,29.27
2018-01-22T04:11:46.185Z,26.52
2018-01-22T04:14:13.704Z,29.10
2018-01-22T04:16:41.219Z,25.88
2018-01-22T04:19:08.717Z,25.58
2018-01-22T04:21:36.237Z,23.00
2018-01-22T04:24:03.794Z,27.25
2018-01-22T04:26:31.851Z,22.75
2018-01-22T04:28:59.370Z,25.85
2018-01-22T04:31:26.989Z,23.98
2018-01-22T04:33:54.625Z,27.73
2018-01-22T04:36:22.130Z,24.05
2018-01-22T04:38:49.642Z,25.10
2018-01-22T04:41:17.901Z,26.90
2018-01-22T04:43:45.573Z,27.45
2018-01-22T04:46:13.083Z,23.27
2018-01-22T04:48:40.619Z,24.87
2018-01-22T04:51:08.386Z,23.60
2018-01-22T04:53:35.981Z,26.87
2018-01-22T04:56:03.471Z,22.00
2018-01-22T04:58:30.978Z,21.77
2018-01-22T05:00:58.530Z,21.48
2018-01-22T05:03:26.272Z,21.45
2018-01-22T05:05:53.810Z,21.12
2018-01-22T05:08:21.474Z,20.25
2018-01-22T05:10:48.978Z,19.77
2018-01-22T05:13:16.479Z,23.02
2018-01-22T05:15:44.060Z,17.73
2018-01-22T05:18:11.559Z,19.85
2018-01-22T05:20:39.362Z,19.95
2018-01-22T05:23:07.644Z,19.90
2018-01-22T05:25:35.928Z,21.05
2018-01-22T05:28:03.455Z,19.02
2018-01-22T05:30:30.972Z,18.95
2018-01-22T05:32:58.538Z,23.12
2018-01-22T05:35:26.072Z,22.42
2018-01-22T05:37:53.592Z,23.48
2018-01-22T05:40:21.116Z,20.62
2018-01-22T05:42:48.915Z,21.45
2018-01-22T05:45:16.462Z,20.37
2018-01-22T05:47:43.954Z,19.27
2018-01-22T05:50:11.482Z,18.23
2018-01-22T05:52:38.995Z,19.42
2018-01-22T05:55:06.514Z,23.35
2018-01-22T05:57:34.052Z,24.45
2018-01-22T06:00:01.594Z,24.12
2018-01-22T06:02:29.133Z,24.17
2018-01-22T06:04:56.688Z,22.92
2018-01-22T06:07:24.210Z,21.83
2018-01-22T06:09:51.777Z,25.23
2018-01-22T06:12:19.338Z,26.80
2018-01-22T06:14:46.844Z,23.23
2018-01-22T06:17:14.364Z,22.37
2018-01-22T06:19:42.619Z,22.02
2018-01-22T06:22:10.901Z,21.83
2018-01-22T06:24:38.425Z,22.50
2018-01-22T06:27:06.869Z,21.62
2018-01-22T06:29:34.395Z,21.58
2018-01-22T06:32:01.933Z,22.15
2018-01-22T06:34:29.453Z,18.27
2018-01-22T06:36:56.970Z,18.60
2018-01-22T06:39:24.491Z,21.00
2018-01-22T06:41:51.988Z,21.40
2018-01-22T06:44:19.768Z,19.52
2018-01-22T06:46:48.175Z,18.40
2018-01-22T06:49:16.319Z,17.92
2018-01-22T06:51:43.890Z,19.90
2018-01-22T06:54:11.390Z,19.73
2018-01-22T06:56:38.897Z,17.12
2018-01-22T06:59:07.168Z,19.65
2018-01-22T07:01:34.686Z,21.75
2018-01-22T07:04:02.183Z,18.27
2018-01-22T07:06:29.714Z,19.58
2018-01-22T07:08:57.289Z,18.23
2018-01-22T07:11:24.834Z,18.00
2018-01-22T07:13:52.342Z,20.80
2018-01-22T07:16:20.109Z,18.25
2018-01-22T07:18:47.598Z,18.27
2018-01-22T07:21:15.101Z,19.00
2018-01-22T07:23:42.682Z,19.70
2018-01-22T07:26:10.213Z,15.88
2018-01-22T07:28:37.716Z,14.63
2018-01-22T07:31:05.326Z,13.95
2018-01-22T07:33:32.868Z,14.35
2018-01-22T07:36:00.716Z,15.48
2018-01-22T07:38:28.441Z,11.73
2018-01-22T07:40:55.982Z,12.00
2018-01-22T07:43:23.606Z,11.85
2018-01-22T07:45:52.480Z,11.15
2018-01-22T07:48:20.853Z,12.40
2018-01-22T07:50:48.396Z,9.55
2018-01-22T07:53:15.946Z,10.02
2018-01-22T07:55:43.452Z,9.70
2018-01-22T07:58:10.991Z,7.65
2018-01-22T08:00:38.480Z,9.07
2018-01-22T08:03:06.754Z,7.55
2018-01-22T08:05:34.254Z,8.63
2018-01-22T08:08:01.838Z,5.75
2018-01-22T08:10:29.351Z,5.68
2018-01-22T08:12:57.647Z,5.80
2018-01-22T08:15:25.397Z,6.50
2018-01-22T08:17:52.890Z,5.37
2018-01-22T08:20:20.440Z,5.07
2018-01-22T08:22:47.935Z,4.97
2018-01-22T08:25:15.445Z,4.85
2018-01-22T08:27:42.954Z,5.87
2018-01-22T08:30:10.479Z,5.72
2018-01-22T08:32:37.986Z,4.07
2018-01-22T08:35:05.705Z,4.72
2018-01-22T08:37:33.235Z,4.50
2018-01-22T08:40:01.644Z,5.53
2018-01-22T08:42:29.168Z,4.72
2018-01-22T08:44:56.716Z,5.05
2018-01-22T08:47:25.015Z,4.37
2018-01-22T08:49:52.508Z,4.65
2018-01-22T08:52:20.019Z,7.43
2018-01-22T08:54:47.708Z,7.43
2018-01-22T08:57:15.195Z,5.85
2018-01-22T08:59:43.196Z,5.85
2018-01-22T09:02:10.735Z,5.10
2018-01-22T09:04:38.286Z,4.55
2018-01-22T09:07:06.670Z,4.20
2018-01-22T09:09:34.202Z,4.90
2018-01-22T09:12:01.730Z,4.07
2018-01-22T09:14:30.046Z,4.30
2018-01-22T09:16:58.341Z,7.30
2018-01-22T09:19:25.883Z,5.18
2018-01-22T09:21:53.582Z,7.93
2018-01-22T09:24:21.082Z,7.12
2018-01-22T09:26:48.650Z,6.45
2018-01-22T09:29:16.170Z,5.00
2018-01-22T09:31:43.796Z,4.78
2018-01-22T09:34:11.299Z,5.12
2018-01-22T09:36:38.961Z,4.93
2018-01-22T09:39:06.462Z,5.82
2018-01-22T09:41:34.032Z,5.37
2018-01-22T09:44:01.939Z,4.47
2018-01-22T09:46:29.445Z,5.28
2018-01-22T09:48:56.949Z,4.40
2018-01-22T09:51:24.585Z,5.12
2018-01-22T09:53:52.264Z,4.25
2018-01-22T09:56:19.790Z,4.32
2018-01-22T09:58:48.058Z,4.57
2018-01-22T10:01:16.385Z,5.28
2018-01-22T10:03:43.879Z,5.53
2018-01-22T10:06:11.663Z,4.75
2018-01-22T10:08:39.537Z,7.65
2018-01-22T10:11:07.069Z,6.37
2018-01-22T10:13:34.614Z,5.53
2018-01-22T10:16:02.147Z,8.17
2018-01-22T10:18:29.692Z,6.18
2018-01-22T10:20:57.358Z,7.22
2018-01-22T10:23:24.961Z,6.97
2018-01-22T10:25:52.458Z,6.93
2018-01-22T10:28:20.102Z,5.70
2018-01-22T10:30:47.611Z,5.73
2018-01-22T10:33:15.144Z,6.40
2018-01-22T10:35:42.634Z,5.37
2018-01-22T10:38:10.172Z,5.72
2018-01-22T10:40:37.678Z,6.47
2018-01-22T10:43:05.501Z,5.90
2018-01-22T10:45:33.115Z,7.13
2018-01-22T10:48:01.408Z,9.43
2018-01-22T10:50:29.004Z,5.87
2018-01-22T10:52:56.497Z,5.55
2018-01-22T10:55:24.100Z,6.32
2018-01-22T10:57:51.597Z,6.45
2018-01-22T11:00:19.089Z,6.90
2018-01-22T11:02:47.586Z,6.93
2018-01-22T11:05:15.106Z,4.65
2018-01-22T11:07:43.381Z,5.90
2018-01-22T11:10:11.665Z,5.50
2018-01-22T11:12:39.926Z,6.10
2018-01-22T11:15:07.460Z,6.83
2018-01-22T11:17:34.953Z,5.27
2018-01-22T11:20:02.530Z,5.60
2018-01-22T11:22:30.046Z,4.07
2018-01-22T11:24:57.528Z,6.27
2018-01-22T11:27:25.841Z,5.70
2018-01-22T11:29:53.335Z,5.23
2018-01-22T11:32:21.107Z,5.20
2018-01-22T11:34:48.616Z,5.23
2018-01-22T11:37:16.195Z,5.33
2018-01-22T11:39:43.683Z,5.67
2018-01-22T11:42:11.191Z,6.03
2018-01-22T11:44:38.667Z,3.90
2018-01-22T11:47:06.171Z,6.47
2018-01-22T11:49:33.669Z,6.00
2018-01-22T11:52:01.403Z,5.90
2018-01-22T11:54:28.911Z,7.03
2018-01-22T11:56:56.418Z,7.80
2018-01-22T11:59:24.000Z,6.93
2018-01-22T12:01:51.484Z,6.47
2018-01-22T12:04:19.935Z,6.33
2018-01-22T12:06:47.425Z,8.20
2018-01-22T12:09:14.924Z,8.33
2018-01-22T12:11:42.448Z,9.50
2018-01-22T12:14:13.643Z,7.77
2018-01-22T12:16:44.538Z,7.73
2018-01-22T12:19:12.064Z,7.97
2018-01-22T12:21:39.592Z,7.07
2018-01-22T12:24:07.266Z,9.10
2018-01-22T12:26:35.218Z,7.97
2018-01-22T12:29:02.758Z,8.40
2018-01-22T12:31:30.278Z,9.10
2018-01-22T12:33:58.009Z,9.70
2018-01-22T12:36:25.861Z,7.53
2018-01-22T12:38:53.357Z,8.75
2018-01-22T12:41:20.988Z,7.93
2018-01-22T12:43:49.245Z,12.17
2018-01-22T12:46:16.774Z,8.07
2018-01-22T12:48:44.293Z,7.43
2018-01-22T12:51:11.757Z,8.77
2018-01-22T12:53:39.772Z,10.47
2018-01-22T12:56:08.057Z,8.37
2018-01-22T12:58:35.547Z,8.17
2018-01-22T13:01:03.115Z,8.67
2018-01-22T13:03:30.601Z,8.97
2018-01-22T13:05:58.146Z,10.67
2018-01-22T13:08:25.729Z,9.50
2018-01-22T13:10:53.243Z,11.20
2018-01-22T13:13:21.563Z,9.13
2018-01-22T13:15:49.048Z,8.30
2018-01-22T13:18:16.544Z,8.50
2018-01-22T13:20:44.062Z,9.13
2018-01-22T13:23:11.580Z,10.03
2018-01-22T13:25:39.086Z,9.87
2018-01-22T13:28:06.641Z,8.53
2018-01-22T13:30:34.125Z,11.27
2018-01-22T13:33:03.493Z,8.70
2018-01-22T13:35:31.046Z,8.57
2018-01-22T13:37:58.569Z,13.93
2018-01-22T13:40:31.825Z,20.07
2018-01-22T13:42:59.316Z,18.07
2018-01-22T13:45:26.828Z,14.67
2018-01-22T13:47:54.441Z,13.50
2018-01-22T13:50:21.966Z,14.63
2018-01-22T13:52:49.656Z,13.83
2018-01-22T13:55:17.291Z,14.07
2018-01-22T13:57:45.675Z,15.73
2018-01-22T14:00:13.213Z,15.90
2018-01-22T14:02:40.948Z,13.20
2018-01-22T14:05:08.494Z,14.27
2018-01-22T14:07:36.000Z,12.47
2018-01-22T14:10:03.541Z,12.47
2018-01-22T14:12:31.033Z,13.60
2018-01-22T14:14:58.555Z,12.33
2018-01-22T14:17:26.055Z,10.93
2018-01-22T14:19:53.574Z,7.97
2018-01-22T14:22:21.079Z,8.17
2018-01-22T14:24:48.559Z,7.50
2018-01-22T14:27:16.060Z,6.17
2018-01-22T14:29:44.338Z,3.90
2018-01-22T14:32:11.855Z,4.90
2018-01-22T14:34:39.384Z,2.70
2018-01-22T14:37:06.882Z,2.13
2018-01-22T14:39:34.370Z,2.07
2018-01-22T14:42:01.907Z,1.70
2018-01-22T14:44:29.416Z,2.50
2018-01-22T14:46:56.993Z,2.80
2018-01-22T14:49:24.477Z,1.80
2018-01-22T14:51:51.980Z,2.53
2018-01-22T14:54:19.634Z,2.57
2018-01-22T14:56:47.917Z,5.70
2018-01-22T14:59:15.399Z,2.83
2018-01-22T15:01:42.951Z,2.03
2018-01-22T15:04:10.488Z,1.53
2018-01-22T15:06:38.083Z,1.90
2018-01-22T15:09:05.730Z,2.40
2018-01-22T15:11:33.218Z,2.50
2018-01-22T15:14:00.956Z,5.23
2018-01-22T15:16:28.442Z,3.10
2018-01-22T15:18:56.221Z,4.73
2018-01-22T15:21:23.754Z,2.73
2018-01-22T15:23:52.097Z,4.23
2018-01-22T15:26:19.849Z,4.40
2018-01-22T15:28:47.425Z,4.10
2018-01-22T15:31:15.053Z,2.50
2018-01-22T15:33:42.576Z,4.10
2018-01-22T15:36:10.077Z,4.47
2018-01-22T15:38:37.686Z,3.80
2018-01-22T15:41:05.248Z,2.40
2018-01-22T15:43:33.162Z,2.50
2018-01-22T15:46:00.672Z,2.10
2018-01-22T15:48:28.231Z,2.90
2018-01-22T15:50:55.907Z,3.00
2018-01-22T15:53:23.634Z,3.10
2018-01-22T15:55:51.396Z,3.30
2018-01-22T15:58:18.915Z,6.37
2018-01-22T16:00:46.528Z,7.33
2018-01-22T16:03:14.186Z,5.13
2018-01-22T16:05:41.901Z,6.43
2018-01-22T16:08:09.422Z,7.60
2018-01-22T16:10:37.516Z,8.27
2018-01-22T16:13:05.156Z,5.30
2018-01-22T16:15:32.679Z,5.30
2018-01-22T16:18:00.920Z,7.80
2018-01-22T16:20:28.418Z,8.03
2018-01-22T16:22:55.972Z,7.93
2018-01-22T16:25:23.457Z,5.77
2018-01-22T16:27:50.952Z,6.13
2018-01-22T16:30:19.246Z,8.30
2018-01-22T16:32:46.754Z,8.77
2018-01-22T16:35:14.258Z,7.43
2018-01-22T16:37:41.794Z,6.30
2018-01-22T16:40:09.392Z,8.43
2018-01-22T16:42:38.213Z,10.47
2018-01-22T16:45:05.741Z,8.60
2018-01-22T16:47:39.643Z,11.67
2018-01-22T16:50:07.183Z,7.67
2018-01-22T16:52:34.673Z,7.87
2018-01-22T16:55:02.408Z,7.13
2018-01-22T16:57:29.909Z,7.10
2018-01-22T16:59:57.446Z,7.53
2018-01-22T17:02:24.999Z,7.60
2018-01-22T17:04:52.523Z,8.70
2018-01-22T17:07:20.066Z,7.50
2018-01-22T17:09:47.569Z,7.87
2018-01-22T17:12:15.855Z,9.30
2018-01-22T17:14:44.133Z,10.00
2018-01-22T17:17:11.613Z,9.03
2018-01-22T17:19:39.131Z,8.00
2018-01-22T17:22:07.341Z,7.23
2018-01-22T17:24:35.465Z,8.00
2018-01-22T17:27:03.692Z,8.50
2018-01-22T17:29:33.351Z,6.80
2018-01-22T17:32:00.824Z,5.27
2018-01-22T17:34:29.152Z,7.07
2018-01-22T17:36:56.725Z,5.23
2018-01-22T17:39:24.250Z,6.50
2018-01-22T17:41:51.773Z,7.03
2018-01-22T17:44:20.047Z,5.07
2018-01-22T17:46:48.331Z,6.20
2018-01-22T17:49:17.219Z,6.83
2018-01-22T17:51:45.517Z,6.97
2018-01-22T17:54:13.006Z,6.67
2018-01-22T17:56:41.658Z,5.43
2018-01-22T17:59:09.133Z,7.33
2018-01-22T18:01:36.713Z,8.37
2018-01-22T18:04:04.255Z,8.53
2018-01-22T18:06:31.811Z,9.13
2018-01-22T18:08:59.485Z,8.77
2018-01-22T18:11:26.962Z,11.93
2018-01-22T18:13:54.479Z,10.97
2018-01-22T18:16:21.974Z,10.20
2018-01-22T18:18:49.477Z,13.00
2018-01-22T18:21:17.057Z,12.03
2018-01-22T18:23:44.578Z,12.43
2018-01-22T18:26:12.085Z,10.97
2018-01-22T18:28:39.676Z,16.77
2018-01-22T18:31:07.586Z,13.67
2018-01-22T18:33:35.136Z,16.37
2018-01-22T18:36:02.666Z,15.10
2018-01-22T18:38:30.810Z,13.93
2018-01-22T18:40:59.149Z,16.60
2018-01-22T18:43:26.640Z,16.10
2018-01-22T18:45:54.182Z,11.43
2018-01-22T18:48:21.697Z,11.60
2018-01-22T18:50:49.222Z,11.60
2018-01-22T18:53:16.748Z,12.13
2018-01-22T18:55:44.274Z,9.97
2018-01-22T18:58:11.764Z,11.93
2018-01-22T19:00:39.292Z,9.87
2018-01-22T19:03:06.804Z,10.80
2018-01-22T19:05:34.327Z,11.10
2018-01-22T19:08:01.838Z,12.50
2018-01-22T19:10:29.353Z,12.90
2018-01-22T19:12:56.914Z,15.07
2018-01-22T19:15:24.422Z,14.83
2018-01-22T19:17:51.950Z,15.00
2018-01-22T19:20:19.466Z,11.67
2018-01-22T19:22:47.867Z,15.57
2018-01-22T19:25:15.365Z,17.33
2018-01-22T19:27:42.879Z,18.20
2018-01-22T19:30:10.406Z,19.87
2018-01-22T19:32:37.963Z,20.37
2018-01-22T19:35:05.475Z,21.47
2018-01-22T19:37:32.993Z,20.93
2018-01-22T19:40:00.693Z,16.43
2018-01-22T19:42:28.205Z,18.77
2018-01-22T19:44:56.662Z,19.77
2018-01-22T19:47:24.166Z,22.80
2018-01-22T19:49:51.697Z,21.67
2018-01-22T19:52:20.012Z,22.57
2018-01-22T19:54:48.226Z,24.07
2018-01-22T19:57:15.725Z,24.20
2018-01-22T19:59:44.037Z,25.67
2018-01-22T20:02:11.546Z,26.87
2018-01-22T20:04:39.101Z,24.27
2018-01-22T20:07:06.612Z,27.57
2018-01-22T20:09:34.120Z,27.80
2018-01-22T20:12:01.643Z,25.77
2018-01-22T20:14:29.166Z,26.10
2018-01-22T20:16:56.696Z,25.47
2018-01-22T20:19:24.210Z,27.70
2018-01-22T20:21:51.756Z,36.03
2018-01-22T20:24:19.258Z,30.83
2018-01-22T20:26:48.101Z,26.20
2018-01-22T20:29:15.605Z,30.07
2018-01-22T20:31:43.132Z,25.53
2018-01-22T20:34:10.623Z,25.73
2018-01-22T20:36:38.536Z,25.23
2018-01-22T20:39:06.060Z,23.77
2018-01-22T20:41:33.592Z,26.67
2018-01-22T20:44:01.103Z,26.33
2018-01-22T20:46:28.592Z,27.23
2018-01-22T20:48:56.119Z,24.10
2018-01-22T20:51:23.632Z,24.93
2018-01-22T20:53:51.145Z,29.40
2018-01-22T20:56:18.651Z,29.87
2018-01-22T20:58:46.164Z,28.77
2018-01-22T21:01:13.662Z,29.67
2018-01-22T21:03:41.392Z,23.00
2018-01-22T21:06:09.254Z,31.07
2018-01-22T21:08:36.813Z,29.63
2018-01-22T21:11:04.328Z,27.43
2018-01-22T21:13:32.242Z,34.17
2018-01-22T21:15:59.992Z,32.80
2018-01-22T21:18:27.496Z,31.20
2018-01-22T21:20:54.999Z,28.37
2018-01-22T21:23:22.485Z,29.40
2018-01-22T21:25:50.137Z,28.53
2018-01-22T21:28:18.140Z,32.83
2018-01-22T21:30:45.676Z,32.07
2018-01-22T21:33:13.170Z,31.67
2018-01-22T21:35:40.894Z,30.00
2018-01-22T21:38:09.358Z,30.07
2018-01-22T21:40:36.931Z,33.33
2018-01-22T21:43:04.488Z,30.43
2018-01-22T21:45:32.023Z,37.53
2018-01-22T21:48:00.285Z,34.50
2018-01-22T21:50:27.783Z,33.13
2018-01-22T21:52:55.340Z,31.17
2018-01-22T21:55:22.849Z,36.80
2018-01-22T21:57:50.373Z,31.43
2018-01-22T22:00:17.874Z,31.67
2018-01-22T22:02:45.429Z,33.37
2018-01-22T22:05:13.101Z,37.93
2018-01-22T22:07:41.395Z,36.47
2018-01-22T22:10:08.905Z,33.37
2018-01-22T22:12:36.444Z,27.80
2018-01-22T22:15:03.947Z,29.60
2018-01-22T22:17:32.229Z,26.80
2018-01-22T22:20:00.532Z,27.30
2018-01-22T22:22:28.094Z,24.57
2018-01-22T22:24:55.605Z,30.40
2018-01-22T22:27:23.881Z,33.80
2018-01-22T22:29:51.493Z,28.40
2018-01-22T22:32:18.989Z,29.87
2018-01-22T22:34:46.518Z,30.10
2018-01-22T22:37:14.004Z,33.80
2018-01-22T22:39:41.661Z,31.30
2018-01-22T22:42:09.295Z,30.60
2018-01-22T22:44:36.857Z,34.30
2018-01-22T22:47:04.509Z,32.67
2018-01-22T22:49:32.001Z,31.70
2018-01-22T22:51:59.526Z,29.70
2018-01-22T22:54:27.029Z,35.70
2018-01-22T22:56:54.547Z,36.63
2018-01-22T22:59:22.025Z,34.50
2018-01-22T23:01:49.525Z,37.73
2018-01-22T23:04:17.801Z,41.20
2018-01-22T23:06:46.162Z,41.37
2018-01-22T23:09:13.813Z,35.07
2018-01-22T23:11:41.324Z,38.83
2018-01-22T23:14:08.831Z,36.03
2018-01-22T23:16:36.446Z,33.93
2018-01-22T23:19:04.308Z,33.07
2018-01-22T23:21:31.859Z,32.00
2018-01-22T23:23:59.361Z,36.60
2018-01-22T23:26:27.092Z,40.07
2018-01-22T23:28:54.571Z,34.10
2018-01-22T23:31:22.087Z,37.10
2018-01-22T23:33:49.768Z,38.63
2018-01-22T23:36:17.308Z,36.73
2018-01-22T23:38:44.842Z,37.70
2018-01-22T23:41:12.428Z,33.63
2018-01-22T23:43:39.933Z,38.10
2018-01-22T23:46:07.431Z,39.93
2018-01-22T23:48:36.045Z,37.60
2018-01-22T23:51:03.534Z,48.07
2018-01-22T23:53:31.046Z,45.83
2018-01-22T23:55:58.537Z,48.10
2018-01-22T23:58:26.038Z,41.40
